Startpagina
METAR-TAF:

METAR-TAF

Vliegvelden :

Schaffen

Diest, België

breedte: 51-00N, lengte: 005-04E, hoogte: 30 m

Actueel weer

Dit bericht is 43 minuten geleden gemaakt, om 00:55 UTC
Wind 3 kt uit het zuiden
Temperatuur 1°C
Vochtigheid 100%
Druk 1026 hPa
Zicht: 0200 m
mist

METAR: EBDT 240055Z AUTO 18003KT 0200 FG OVC007/// 01/01 Q1026 RED

Tijdstip: 02:38 (01:38 UTC)

Verwachting

Dit bericht is 9 uur en het 57 minuten geleden gemaakt, om 15:41 UTC
Verwachting geldig van 23 om 19 UTC tot 24 om 07 UTC
Wind 3 kt uit variabele richting
Zicht: 2500 m
Verspreide wolken op 600 ft
Gebroken wolken op 800 ft
nevel
Wijzigt naar
van 23 om 19 UTC tot 23 om 21 UTC
Zicht: 1600 m
nevel
Wijzigt naar
van 23 om 23 UTC tot 24 om 01 UTC
Zicht: 0700 m
Gebroken wolken op 100 ft
mist, onderkoelde mist

TAF: EBDT 231541Z 2319/2407 VRB03KT 2500 BR SCT006 BKN008 BECMG 2319/2321 1600 BR BECMG 2323/2401 0700 FG FZFG BKN001

Waarnemingen en weersverwachtingen van meer dan 4000 vliegvelden (METAR en TAF).

De beschikbare stations zijn de gele en rode punten op de kaart.

Ga met uw muis naar het station om de naam te zien.

Klik dan om waarnemingen en weersverwachtingen te zien.

kaart wijzigen: klik op de groene knoppen met een zwart kruis om in te zoomen, op de groene knop met een streepje om uit te zoomen of op de groene pijlen voor aangrenzende kaarten.


METAR-TAF: